createdAt,value
2023-02-24T00:04:51.768Z,28.33
2023-02-24T00:09:53.347Z,26.75
2023-02-24T00:14:54.754Z,27.60
2023-02-24T00:19:56.933Z,27.30
2023-02-24T00:25:02.482Z,28.30
2023-02-24T00:30:05.945Z,27.67
2023-02-24T00:35:08.860Z,27.27
2023-02-24T00:40:11.222Z,27.33
2023-02-24T00:45:12.695Z,28.80
2023-02-24T00:50:14.208Z,28.17
2023-02-24T00:55:15.634Z,27.88
2023-02-24T01:00:17.718Z,27.95
2023-02-24T01:05:20.121Z,29.25
2023-02-24T01:10:23.399Z,27.65
2023-02-24T01:15:25.012Z,28.00
2023-02-24T01:20:30.368Z,26.63
2023-02-24T01:25:31.846Z,27.05
2023-02-24T01:30:33.915Z,27.73
2023-02-24T01:35:35.417Z,26.42
2023-02-24T01:40:37.560Z,27.02
2023-02-24T01:45:41.818Z,26.45
2023-02-24T01:50:45.235Z,26.60
2023-02-24T01:55:50.763Z,27.73
2023-02-24T02:00:52.485Z,26.45
2023-02-24T02:05:59.116Z,27.63
2023-02-24T02:11:06.283Z,27.23
2023-02-24T02:16:35.853Z,26.42
2023-02-24T02:22:17.592Z,26.92
2023-02-24T02:27:49.897Z,26.77
2023-02-24T02:33:21.552Z,25.13
2023-02-24T02:38:32.270Z,26.70
2023-02-24T02:43:49.019Z,26.70
2023-02-24T02:48:57.384Z,26.17
2023-02-24T02:54:16.338Z,29.20
2023-02-24T02:59:22.536Z,25.30
2023-02-24T03:04:26.558Z,26.05
2023-02-24T03:09:36.564Z,26.23
2023-02-24T03:14:43.074Z,26.95
2023-02-24T03:19:46.941Z,25.40
2023-02-24T03:24:48.753Z,25.60
2023-02-24T03:29:55.477Z,27.45
2023-02-24T03:35:04.278Z,26.38
2023-02-24T03:40:14.464Z,25.02
2023-02-24T03:45:17.817Z,26.58
2023-02-24T03:50:22.038Z,26.80
2023-02-24T03:55:33.334Z,25.83
2023-02-24T04:01:00.006Z,26.08
2023-02-24T04:06:11.834Z,26.92
2023-02-24T04:11:41.993Z,25.90
2023-02-24T04:16:51.499Z,24.67
2023-02-24T04:21:54.922Z,25.02
2023-02-24T04:27:01.007Z,24.25
2023-02-24T04:32:07.590Z,23.95
2023-02-24T04:37:09.283Z,24.17
2023-02-24T04:42:10.922Z,24.85
2023-02-24T04:47:12.666Z,24.75
2023-02-24T04:52:15.894Z,24.38
2023-02-24T04:57:17.411Z,25.80
2023-02-24T05:02:20.559Z,23.65
2023-02-24T05:07:22.513Z,24.50
2023-02-24T05:12:24.012Z,22.05
2023-02-24T05:17:25.421Z,22.20
2023-02-24T05:22:28.962Z,24.02
2023-02-24T05:27:30.716Z,24.67
2023-02-24T05:32:34.617Z,23.33
2023-02-24T05:37:42.094Z,23.48
2023-02-24T05:42:45.282Z,23.77
2023-02-24T05:47:47.385Z,23.63
2023-02-24T05:52:48.814Z,22.67
2023-02-24T05:57:50.868Z,23.13
2023-02-24T06:02:52.651Z,22.40
2023-02-24T06:08:04.681Z,22.65
2023-02-24T06:13:07.217Z,23.25
2023-02-24T06:18:11.608Z,20.75
2023-02-24T06:23:13.068Z,20.67
2023-02-24T06:28:14.506Z,19.75
2023-02-24T06:33:16.120Z,12.52
2023-02-24T06:38:17.551Z,12.02
2023-02-24T06:43:19.385Z,11.82
2023-02-24T06:48:22.988Z,12.73
2023-02-24T06:53:26.625Z,13.25
2023-02-24T06:58:28.052Z,12.52
2023-02-24T07:03:47.479Z,14.38
2023-02-24T07:08:49.061Z,13.65
2023-02-24T07:13:54.463Z,14.73
2023-02-24T07:18:57.978Z,14.10
2023-02-24T07:23:59.687Z,13.68
2023-02-24T07:29:04.504Z,14.48
2023-02-24T07:34:06.427Z,13.32
2023-02-24T07:39:08.134Z,13.23
2023-02-24T07:44:10.646Z,14.27
2023-02-24T07:49:19.821Z,11.93
2023-02-24T07:54:23.265Z,13.65
2023-02-24T07:59:30.444Z,12.82
2023-02-24T08:04:33.061Z,11.55
2023-02-24T08:09:46.943Z,14.15
2023-02-24T08:14:51.789Z,13.13
2023-02-24T08:20:13.256Z,13.80
2023-02-24T08:25:19.166Z,13.88
2023-02-24T08:30:23.702Z,13.65
2023-02-24T08:35:35.664Z,13.77
2023-02-24T08:40:50.022Z,12.98
2023-02-24T08:45:59.434Z,12.25
2023-02-24T08:51:02.905Z,12.25
2023-02-24T08:56:09.588Z,11.73
2023-02-24T09:01:19.222Z,11.15
2023-02-24T09:06:28.191Z,10.38
2023-02-24T09:11:29.620Z,10.30
2023-02-24T09:16:31.101Z,10.10
2023-02-24T09:22:10.390Z,8.80
2023-02-24T09:27:17.267Z,9.68
2023-02-24T09:32:18.788Z,9.88
2023-02-24T09:37:26.186Z,7.97
2023-02-24T09:42:34.928Z,9.35
2023-02-24T09:47:57.406Z,9.38
2023-02-24T09:53:13.951Z,7.95
2023-02-24T09:58:41.844Z,9.43
2023-02-24T10:09:03.953Z,8.55
2023-02-24T10:14:19.426Z,7.97
2023-02-24T10:19:26.959Z,7.93
2023-02-24T10:24:41.313Z,8.25
2023-02-24T10:30:19.589Z,7.97
2023-02-24T10:35:25.936Z,8.70
2023-02-24T10:40:45.069Z,6.47
2023-02-24T10:45:47.812Z,5.85
2023-02-24T10:50:56.072Z,5.50
2023-02-24T10:56:22.890Z,5.40
2023-02-24T11:01:46.234Z,4.90
2023-02-24T11:06:55.577Z,4.10
2023-02-24T11:17:26.938Z,5.15
2023-02-24T11:22:34.212Z,4.72
2023-02-24T11:27:35.814Z,6.07
2023-02-24T11:33:14.592Z,4.57
2023-02-24T11:38:45.049Z,5.40
2023-02-24T11:43:57.705Z,5.28
2023-02-24T11:49:01.595Z,4.90
2023-02-24T11:54:12.821Z,5.07
2023-02-24T11:59:32.502Z,6.65
2023-02-24T12:05:00.672Z,6.65
2023-02-24T12:10:16.046Z,6.20
2023-02-24T12:15:32.293Z,6.82
2023-02-24T12:20:40.500Z,7.20
2023-02-24T12:25:59.703Z,9.40
2023-02-24T12:36:20.098Z,8.55
2023-02-24T12:41:46.338Z,13.15
2023-02-24T12:46:58.262Z,10.35
2023-02-24T12:52:19.347Z,6.70
2023-02-24T12:57:48.284Z,6.15
2023-02-24T13:03:10.072Z,5.22
2023-02-24T13:08:29.558Z,5.30
2023-02-24T13:13:40.463Z,4.70
2023-02-24T13:18:42.035Z,3.95
2023-02-24T13:23:56.146Z,4.38
2023-02-24T13:29:02.982Z,3.85
2023-02-24T13:34:15.020Z,4.38
2023-02-24T13:39:31.385Z,3.80
2023-02-24T13:44:33.601Z,4.22
2023-02-24T13:50:06.511Z,4.40
2023-02-24T13:55:07.945Z,3.90
2023-02-24T14:00:12.701Z,4.45
2023-02-24T14:05:25.768Z,3.90
2023-02-24T14:10:34.636Z,3.95
2023-02-24T14:15:36.201Z,4.10
2023-02-24T14:20:39.615Z,4.05
2023-02-24T14:25:41.232Z,3.80
2023-02-24T14:30:42.886Z,4.03
2023-02-24T14:35:47.390Z,4.45
2023-02-24T14:40:48.931Z,4.10
2023-02-24T14:45:52.731Z,3.60
2023-02-24T14:51:01.904Z,5.15
2023-02-24T14:56:06.139Z,4.80
2023-02-24T15:01:22.716Z,5.38
2023-02-24T15:06:29.651Z,4.80
2023-02-24T15:11:33.019Z,5.15
2023-02-24T15:16:40.275Z,4.60
2023-02-24T15:21:42.943Z,4.30
2023-02-24T15:27:01.969Z,5.00
2023-02-24T15:32:07.223Z,5.00
2023-02-24T15:37:24.920Z,4.75
2023-02-24T15:42:33.913Z,5.20
2023-02-24T15:47:44.477Z,4.78
2023-02-24T15:52:46.311Z,4.47
2023-02-24T15:57:57.017Z,5.63
2023-02-24T16:02:58.597Z,4.82
2023-02-24T16:08:00.039Z,4.93
2023-02-24T16:13:02.106Z,5.30
2023-02-24T16:18:04.241Z,5.05
2023-02-24T16:23:05.729Z,5.13
2023-02-24T16:28:08.352Z,4.55
2023-02-24T16:33:13.975Z,4.65
2023-02-24T16:38:18.158Z,4.90
2023-02-24T16:43:19.633Z,4.18
2023-02-24T16:48:26.651Z,4.28
2023-02-24T16:53:28.092Z,4.50
2023-02-24T16:58:29.552Z,4.63
2023-02-24T17:03:51.748Z,4.70
2023-02-24T17:08:53.234Z,4.80
2023-02-24T17:13:54.900Z,4.72
2023-02-24T17:18:56.320Z,4.97
2023-02-24T17:23:57.771Z,5.13
2023-02-24T17:28:59.257Z,5.32
2023-02-24T17:34:01.949Z,4.90
2023-02-24T17:39:03.548Z,5.57
2023-02-24T17:44:04.984Z,5.90
2023-02-24T17:49:06.483Z,6.95
2023-02-24T17:54:08.397Z,7.00
2023-02-24T17:59:09.998Z,6.97
2023-02-24T18:04:14.701Z,7.35
2023-02-24T18:09:16.141Z,7.70
2023-02-24T18:14:17.664Z,7.40
2023-02-24T18:19:19.208Z,7.57
2023-02-24T18:24:22.738Z,8.80
2023-02-24T18:29:24.170Z,8.20
2023-02-24T18:34:25.623Z,9.45
2023-02-24T18:39:28.259Z,9.20
2023-02-24T18:44:29.710Z,10.50
2023-02-24T18:49:31.123Z,10.50
2023-02-24T18:54:34.042Z,10.32
2023-02-24T18:59:35.484Z,10.27
2023-02-24T19:04:36.901Z,11.00
2023-02-24T19:09:41.560Z,11.32
2023-02-24T19:14:44.549Z,8.88
2023-02-24T19:19:46.677Z,7.20
2023-02-24T19:24:48.104Z,6.57
2023-02-24T19:29:49.629Z,6.60
2023-02-24T19:34:51.051Z,5.30
2023-02-24T19:39:52.591Z,8.82
2023-02-24T19:44:54.087Z,13.20
2023-02-24T19:49:55.569Z,14.82
2023-02-24T19:54:57.998Z,14.88
2023-02-24T19:59:59.468Z,21.13
2023-02-24T20:05:01.011Z,14.32
2023-02-24T20:10:02.525Z,10.57
2023-02-24T20:15:05.346Z,6.22
2023-02-24T20:20:07.403Z,10.02
2023-02-24T20:25:09.224Z,19.05
2023-02-24T20:30:11.432Z,9.75
2023-02-24T20:35:12.895Z,10.73
2023-02-24T20:40:14.487Z,6.97
2023-02-24T20:45:16.335Z,10.18
2023-02-24T20:50:18.110Z,8.45
2023-02-24T20:55:19.642Z,7.32
2023-02-24T21:00:21.204Z,7.40
2023-02-24T21:05:28.160Z,7.93
2023-02-24T21:10:29.602Z,7.85
2023-02-24T21:15:31.094Z,8.48
2023-02-24T21:20:32.637Z,9.05
2023-02-24T21:25:34.053Z,9.27
2023-02-24T21:30:35.556Z,9.30
2023-02-24T21:35:36.996Z,10.32
2023-02-24T21:40:38.519Z,8.18
2023-02-24T21:45:39.993Z,9.10
2023-02-24T21:50:41.441Z,8.05
2023-02-24T21:55:43.109Z,8.40
2023-02-24T22:00:44.524Z,8.20
2023-02-24T22:05:49.981Z,7.28
2023-02-24T22:11:01.116Z,7.03
2023-02-24T22:16:05.886Z,6.70
2023-02-24T22:21:12.743Z,6.80
2023-02-24T22:26:15.603Z,7.32
2023-02-24T22:31:20.205Z,6.95
2023-02-24T22:36:28.424Z,7.80
2023-02-24T22:41:32.374Z,7.30
2023-02-24T22:46:36.663Z,8.30
2023-02-24T22:51:38.172Z,6.97
2023-02-24T22:56:39.613Z,7.65
2023-02-24T23:01:42.678Z,5.40
2023-02-24T23:06:44.617Z,9.95
2023-02-24T23:11:46.821Z,5.45
2023-02-24T23:16:54.642Z,4.45
2023-02-24T23:21:57.071Z,6.05
2023-02-24T23:26:58.587Z,6.38
2023-02-24T23:32:00.275Z,3.33
2023-02-24T23:37:01.806Z,3.97
2023-02-24T23:42:03.347Z,5.20
2023-02-24T23:47:05.059Z,4.03
2023-02-24T23:52:06.559Z,3.03
2023-02-24T23:57:07.991Z,3.00
